Time;durP1;ratioP1;P1;durP2;ratioP2;P2;SDS_P1;SDS_P2;PMS_P1;PMS_P2;Temp;Humidity;BMP_temperature;BMP_pressure;BME280_temperature;BME280_humidity;BME280_pressure;Samples;Min_cycle;Max_cycle;Signal;HPM_P1;HPM_P2
2021/07/13 00:00:34;;;;;;;14.30;12.70;;;;;;;18.63;77.29;100170.75;1789811;80;21770;-69
2021/07/13 00:03:04;;;;;;;16.67;12.60;;;;;;;18.56;77.36;100170.84;1789868;80;20936;-69
2021/07/13 00:05:34;;;;;;;17.25;13.30;;;;;;;18.55;77.45;100169.70;1788464;80;21021;-69
2021/07/13 00:08:00;;;;;;;14.10;11.65;;;;;;;18.53;77.50;100172.66;1789172;80;21103;-69
2021/07/13 00:10:29;;;;;;;14.55;12.35;;;;;;;18.50;77.54;100169.55;1788330;80;21055;-69
2021/07/13 00:12:56;;;;;;;15.38;11.78;;;;;;;18.44;77.62;100166.69;1789499;80;21693;-69
2021/07/13 00:15:29;;;;;;;15.20;12.35;;;;;;;18.44;77.71;100165.34;1789093;80;21003;-69
2021/07/13 00:17:56;;;;;;;17.23;13.22;;;;;;;18.46;77.77;100165.95;1789658;79;21063;-69
2021/07/13 00:20:22;;;;;;;15.20;13.22;;;;;;;18.49;77.83;100167.37;1789228;80;21016;-69
2021/07/13 00:22:48;;;;;;;14.83;13.00;;;;;;;18.50;77.86;100164.98;1789687;79;21024;-70
2021/07/13 00:25:14;;;;;;;17.32;13.78;;;;;;;18.48;77.92;100161.14;1811759;79;21659;-70
2021/07/13 00:27:41;;;;;;;14.98;13.40;;;;;;;18.47;77.95;100166.78;1811427;79;20988;-69
2021/07/13 00:30:09;;;;;;;15.10;13.38;;;;;;;18.46;78.02;100162.42;1811390;79;21542;-69
2021/07/13 00:32:35;;;;;;;17.27;14.93;;;;;;;18.43;78.05;100161.02;1811769;79;21488;-69
2021/07/13 00:35:01;;;;;;;15.70;13.28;;;;;;;18.42;78.11;100159.88;1811553;79;20975;-69
2021/07/13 00:37:27;;;;;;;17.30;14.65;;;;;;;18.39;78.18;100158.47;1811802;79;21127;-69
2021/07/13 00:39:53;;;;;;;17.62;14.03;;;;;;;18.37;78.22;100157.84;1811320;79;20988;-69
2021/07/13 00:42:19;;;;;;;16.12;14.43;;;;;;;18.35;78.26;100150.51;1810427;79;21093;-69
2021/07/13 00:44:46;;;;;;;16.35;14.65;;;;;;;18.33;78.30;100156.64;1808912;79;21511;-69
2021/07/13 00:47:12;;;;;;;19.52;15.00;;;;;;;18.32;78.39;100159.06;1809260;79;21022;-69
2021/07/13 00:49:38;;;;;;;15.80;14.20;;;;;;;18.29;78.43;100164.92;1809030;79;21149;-69
2021/07/13 00:52:06;;;;;;;17.25;14.30;;;;;;;18.27;78.51;100153.50;1808883;79;20991;-69
2021/07/13 00:54:32;;;;;;;18.57;15.05;;;;;;;18.24;78.57;100148.56;1808684;79;21046;-69
2021/07/13 00:56:58;;;;;;;18.07;14.68;;;;;;;18.23;78.66;100160.41;1808582;79;21026;-69
2021/07/13 00:59:24;;;;;;;18.45;15.63;;;;;;;18.22;78.75;100152.03;1808657;79;21035;-69
2021/07/13 01:01:50;;;;;;;18.23;15.72;;;;;;;18.20;78.79;100147.36;1808442;79;21799;-69
2021/07/13 01:04:17;;;;;;;23.35;16.65;;;;;;;18.19;78.85;100141.66;1808307;79;20980;-69
2021/07/13 01:06:51;;;;;;;20.48;15.98;;;;;;;18.18;78.90;100135.98;1805454;79;20991;-69
2021/07/13 01:09:58;;;;;;;19.87;16.27;;;;;;;18.16;78.96;100131.83;1807450;79;21050;-69
2021/07/13 01:13:02;;;;;;;20.68;17.80;;;;;;;18.13;79.03;100141.21;1808516;79;21042;-69
2021/07/13 01:15:32;;;;;;;23.57;19.00;;;;;;;18.11;79.09;100134.40;1808879;79;21238;-69
2021/07/13 01:18:05;;;;;;;20.05;17.73;;;;;;;18.08;79.16;100133.50;1808393;79;21010;-69
2021/07/13 01:21:00;;;;;;;21.02;17.07;;;;;;;18.05;79.20;100136.11;1808767;79;21456;-69
2021/07/13 01:23:52;;;;;;;19.50;16.62;;;;;;;18.02;79.25;100137.91;1766644;79;21008;-69
2021/07/13 01:26:41;;;;;;;20.90;17.07;;;;;;;18.01;79.28;100134.11;1808145;79;21090;-69
2021/07/13 01:29:12;;;;;;;23.95;18.07;;;;;;;17.94;79.35;100140.38;1807900;79;21153;-69
2021/07/13 01:31:41;;;;;;;28.20;18.07;;;;;;;17.92;79.43;100133.56;1807902;79;21027;-69
2021/07/13 01:34:22;;;;;;;20.82;18.27;;;;;;;17.89;79.46;100131.31;1808997;79;21041;-69
2021/07/13 01:36:53;;;;;;;20.15;17.87;;;;;;;17.86;79.53;100131.77;1808711;79;20996;-69
2021/07/13 01:39:19;;;;;;;22.02;18.20;;;;;;;17.85;79.58;100135.50;1807683;79;21356;-69
2021/07/13 01:41:47;;;;;;;20.20;18.15;;;;;;;17.85;79.63;100135.50;1808346;79;21165;-69
2021/07/13 01:44:13;;;;;;;22.27;19.15;;;;;;;17.85;79.69;100130.11;1802581;79;21507;-69
2021/07/13 01:46:39;;;;;;;22.45;18.32;;;;;;;17.85;79.73;100119.31;1802992;79;20994;-69
2021/07/13 01:49:05;;;;;;;22.02;19.25;;;;;;;17.85;79.80;100120.66;1803082;79;20984;-69
2021/07/13 01:51:31;;;;;;;24.75;18.87;;;;;;;17.83;79.87;100117.38;1803108;79;21023;-69
2021/07/13 01:54:06;;;;;;;24.15;19.70;;;;;;;17.81;79.94;100111.37;1802645;79;20998;-69
2021/07/13 01:56:32;;;;;;;21.55;18.23;;;;;;;17.80;80.00;100117.83;1801167;79;21546;-69
2021/07/13 01:58:58;;;;;;;21.10;17.80;;;;;;;17.78;80.06;100112.64;1803189;79;21468;-69
2021/07/13 02:01:24;;;;;;;23.83;18.75;;;;;;;17.79;80.10;100116.17;1802825;79;20995;-69
2021/07/13 02:03:52;;;;;;;24.85;18.15;;;;;;;17.77;80.13;100116.91;1803090;79;21043;-69
2021/07/13 02:06:18;;;;;;;19.87;17.25;;;;;;;17.80;80.21;100124.58;1802676;79;21131;-69
2021/07/13 02:08:44;;;;;;;23.67;18.05;;;;;;;17.80;80.26;100128.63;1771770;79;20996;-69
2021/07/13 02:11:11;;;;;;;23.05;18.95;;;;;;;17.80;80.30;100121.87;1802910;79;21456;-69
2021/07/13 02:13:37;;;;;;;24.00;17.98;;;;;;;17.81;80.34;100122.16;1802594;79;21097;-69
2021/07/13 02:16:04;;;;;;;25.57;18.30;;;;;;;17.78;80.36;100118.56;1802863;79;20992;-69
2021/07/13 02:18:30;;;;;;;23.47;18.62;;;;;;;17.77;80.40;100124.48;1802890;79;21125;-69
2021/07/13 02:20:57;;;;;;;22.55;18.67;;;;;;;17.75;80.46;100123.06;1802927;79;21062;-69
2021/07/13 02:23:23;;;;;;;25.65;18.73;;;;;;;17.72;80.47;100125.69;1802984;79;20996;-69
2021/07/13 02:25:52;;;;;;;20.60;16.97;;;;;;;17.70;80.53;100123.72;1803153;79;21106;-69
2021/07/13 02:28:39;;;;;;;22.62;18.10;;;;;;;17.65;80.55;100133.02;1802728;79;20996;-69
2021/07/13 02:31:13;;;;;;;25.40;18.27;;;;;;;17.63;80.58;100132.91;1802892;79;21246;-69
2021/07/13 02:33:46;;;;;;;26.17;18.95;;;;;;;17.61;80.62;100139.06;1803160;79;21448;-69
2021/07/13 02:36:16;;;;;;;29.67;18.77;;;;;;;17.61;80.68;100143.11;1802782;79;21046;-69
2021/07/13 02:38:44;;;;;;;24.85;18.62;;;;;;;17.58;80.68;100131.42;1803076;79;21117;-69
2021/07/13 02:41:10;;;;;;;24.92;19.42;;;;;;;17.57;80.74;100139.20;1771931;79;21020;-69
2021/07/13 02:43:36;;;;;;;22.85;18.73;;;;;;;17.57;80.77;100140.55;1806588;79;21152;-69
2021/07/13 02:48:48;;;;;;;29.43;20.27;;;;;;;17.57;80.84;100148.64;1838490;76;29917;-69
2021/07/13 02:51:14;;;;;;;27.10;19.60;;;;;;;17.55;80.93;100146.16;1826820;78;20975;-69
2021/07/13 02:53:40;;;;;;;31.07;19.92;;;;;;;17.52;80.99;100139.03;1790487;80;21762;-69
2021/07/13 02:56:07;;;;;;;22.75;17.90;;;;;;;17.48;81.03;100138.13;1790453;79;21015;-69
2021/07/13 02:58:33;;;;;;;22.05;17.60;;;;;;;17.45;81.04;100137.20;1790289;79;20967;-69
2021/07/13 03:00:59;;;;;;;26.30;18.27;;;;;;;17.41;81.08;100140.05;1790363;79;21050;-69
2021/07/13 03:03:25;;;;;;;28.17;18.60;;;;;;;17.40;81.11;100137.56;1790548;80;20982;-69
2021/07/13 03:05:52;;;;;;;24.90;18.02;;;;;;;17.41;81.14;100142.75;1790334;80;21132;-69
2021/07/13 03:08:22;;;;;;;23.77;16.85;;;;;;;17.45;81.17;100136.40;1790506;79;21538;-69
2021/07/13 03:10:49;;;;;;;22.13;18.65;;;;;;;17.46;81.15;100140.20;1789804;79;21023;-69
2021/07/13 03:13:15;;;;;;;24.98;17.17;;;;;;;17.49;81.18;100140.27;1770426;80;21649;-69
2021/07/13 03:15:42;;;;;;;22.60;17.20;;;;;;;17.51;81.19;100136.85;1789986;79;21000;-69
2021/07/13 03:18:08;;;;;;;22.55;17.55;;;;;;;17.53;81.21;100132.57;1790088;79;21142;-69
2021/07/13 03:20:34;;;;;;;27.77;17.07;;;;;;;17.54;81.24;100134.23;1790325;79;20991;-69
2021/07/13 03:23:01;;;;;;;23.67;17.57;;;;;;;17.56;81.25;100133.50;1789948;79;21043;-69
2021/07/13 03:25:33;;;;;;;23.60;17.23;;;;;;;17.56;81.24;100133.50;1793683;78;21006;-69
2021/07/13 03:27:59;;;;;;;22.67;18.17;;;;;;;17.57;81.24;100133.30;1825311;78;20975;-69
2021/07/13 03:30:25;;;;;;;25.25;18.15;;;;;;;17.58;81.27;100142.21;1826046;78;21826;-69
2021/07/13 03:32:52;;;;;;;23.87;16.70;;;;;;;17.57;81.26;100129.77;1792913;80;21455;-69
2021/07/13 03:35:20;;;;;;;23.15;18.57;;;;;;;17.59;81.27;100130.39;1825864;78;21313;-69
2021/07/13 03:37:50;;;;;;;24.77;17.65;;;;;;;17.62;81.30;100135.34;1764719;80;21474;-69
2021/07/13 03:40:16;;;;;;;21.97;16.90;;;;;;;17.95;81.62;100135.28;1825741;78;21507;-69
2021/07/13 03:42:44;;;;;;;19.52;15.88;;;;;;;18.66;81.76;100128.42;1793414;79;21798;-69
2021/07/13 03:45:15;;;;;;;20.30;16.05;;;;;;;19.27;81.47;100143.83;1825544;78;20976;-69
2021/07/13 03:47:39;;;;;;;18.42;13.75;;;;;;;19.80;81.18;100137.54;1793327;79;21470;-69
2021/07/13 03:50:06;;;;;;;18.50;14.87;;;;;;;20.31;80.79;100126.76;1825758;78;21499;-69
2021/07/13 03:52:32;;;;;;;21.30;14.40;;;;;;;20.74;80.34;100128.13;1793153;80;21561;-69
2021/07/13 03:54:58;;;;;;;21.15;14.63;;;;;;;21.06;79.99;100129.27;1825642;78;22341;-69
2021/07/13 03:57:24;;;;;;;19.82;13.45;;;;;;;21.46;79.58;100124.26;1793139;79;20962;-70
2021/07/13 03:59:50;;;;;;;18.67;13.88;;;;;;;21.90;79.08;100124.67;1825197;78;21014;-69
2021/07/13 04:02:16;;;;;;;13.90;12.23;;;;;;;22.36;78.56;100124.19;1792651;80;20970;-70
2021/07/13 04:04:42;;;;;;;16.70;12.45;;;;;;;22.61;77.84;100120.95;1825096;78;21054;-70
2021/07/13 04:07:08;;;;;;;14.43;11.70;;;;;;;22.97;77.34;100114.00;1792184;80;22063;-70
2021/07/13 04:09:35;;;;;;;20.60;12.85;;;;;;;23.42;76.61;100110.05;1825036;78;21018;-70
2021/07/13 04:12:01;;;;;;;16.87;13.18;;;;;;;23.81;75.95;100112.77;1792587;80;21425;-70
2021/07/13 04:14:27;;;;;;;17.05;12.43;;;;;;;24.16;75.16;100118.43;1824832;78;21526;-70
2021/07/13 04:16:53;;;;;;;15.45;11.43;;;;;;;24.59;74.47;100110.95;1792496;80;20974;-69
2021/07/13 04:19:19;;;;;;;19.70;11.55;;;;;;;24.86;73.77;100106.13;1824877;78;21866;-70
2021/07/13 04:21:45;;;;;;;14.95;11.28;;;;;;;25.28;72.96;100105.33;1792713;80;20974;-70
2021/07/13 04:24:11;;;;;;;18.37;11.30;;;;;;;25.65;72.14;100111.06;1824920;78;20962;-70
2021/07/13 04:26:37;;;;;;;16.95;10.18;;;;;;;25.68;71.17;100120.08;1792567;80;21025;-70
2021/07/13 04:29:03;;;;;;;18.55;11.15;;;;;;;25.89;70.59;100118.94;1825205;78;20971;-70
2021/07/13 04:31:30;;;;;;;11.73;10.15;;;;;;;26.13;69.50;100124.05;1792524;80;21868;-70
2021/07/13 04:33:57;;;;;;;14.28;10.03;;;;;;;26.15;68.73;100124.58;1824885;78;20991;-70
2021/07/13 04:36:23;;;;;;;18.23;10.23;;;;;;;26.17;67.79;100125.68;1792345;80;21076;-70
2021/07/13 04:38:49;;;;;;;18.90;10.80;;;;;;;26.11;66.99;100123.49;1825164;78;20947;-70
2021/07/13 04:41:15;;;;;;;14.25;9.73;;;;;;;25.51;66.38;100123.08;1792275;80;20970;-70
2021/07/13 04:43:41;;;;;;;19.48;10.25;;;;;;;24.93;66.57;100121.69;1825176;78;21877;-70
2021/07/13 04:46:07;;;;;;;15.13;9.13;;;;;;;24.53;66.66;100132.45;1792662;80;20962;-70
2021/07/13 04:48:33;;;;;;;12.95;9.03;;;;;;;24.27;66.76;100132.38;1802253;78;21592;-70
2021/07/13 04:50:59;;;;;;;13.83;8.40;;;;;;;23.85;66.75;100125.57;1785393;80;21010;-70
2021/07/13 04:53:26;;;;;;;16.73;8.80;;;;;;;23.68;66.85;100130.94;1791963;80;20997;-70
2021/07/13 04:55:52;;;;;;;15.58;8.38;;;;;;;23.64;66.88;100124.37;1792218;80;21906;-70
2021/07/13 04:58:18;;;;;;;13.08;7.92;;;;;;;23.56;66.81;100122.13;1791606;80;21475;-70
2021/07/13 05:00:44;;;;;;;12.33;8.70;;;;;;;23.61;66.81;100118.09;1792108;80;21490;-70
2021/07/13 05:03:10;;;;;;;10.18;7.55;;;;;;;23.70;66.55;100121.95;1791866;80;21397;-70
2021/07/13 05:05:36;;;;;;;14.45;8.85;;;;;;;23.72;66.38;100123.86;1791887;80;21060;-71
2021/07/13 05:08:02;;;;;;;12.40;8.30;;;;;;;23.73;66.35;100120.89;1791974;80;21899;-70
2021/07/13 05:10:28;;;;;;;10.28;8.08;;;;;;;23.89;66.29;100116.33;1792036;80;20993;-70
2021/07/13 05:12:54;;;;;;;12.30;7.75;;;;;;;23.97;66.11;100118.56;1792081;80;21032;-71
2021/07/13 05:15:20;;;;;;;21.42;8.38;;;;;;;24.16;66.09;100114.34;1792008;80;20929;-70
2021/07/13 05:17:46;;;;;;;14.53;8.05;;;;;;;24.65;66.07;100116.69;1792211;80;20961;-70
2021/07/13 05:20:14;;;;;;;12.40;8.25;;;;;;;25.01;65.82;100117.06;1792077;80;21878;-70
2021/07/13 05:22:42;;;;;;;13.28;8.10;;;;;;;24.96;65.48;100115.68;1792022;80;21072;-70
2021/07/13 05:25:09;;;;;;;15.08;8.05;;;;;;;25.05;65.38;100120.07;1791670;80;21062;-70
2021/07/13 05:27:39;;;;;;;14.28;7.40;;;;;;;25.11;65.06;100114.34;1791337;78;21608;-70
2021/07/13 05:30:07;;;;;;;12.03;7.87;;;;;;;25.05;64.71;100112.67;1791565;80;21090;-71
2021/07/13 05:32:33;;;;;;;11.70;7.50;;;;;;;25.11;64.55;100110.25;1791954;80;21806;-71
2021/07/13 05:34:59;;;;;;;8.80;7.47;;;;;;;25.31;64.25;100121.16;1792048;80;21052;-71
2021/07/13 05:37:25;;;;;;;12.70;7.58;;;;;;;24.96;63.64;100123.87;1791816;80;21037;-70
2021/07/13 05:39:51;;;;;;;14.33;7.80;;;;;;;24.85;63.58;100123.03;1792090;80;21037;-70
2021/07/13 05:42:17;;;;;;;12.58;7.03;;;;;;;24.94;63.35;100117.05;1791906;80;21001;-70
2021/07/13 05:44:43;;;;;;;14.03;7.80;;;;;;;24.85;63.14;100118.94;1791755;80;21904;-71
2021/07/13 05:47:09;;;;;;;14.70;8.38;;;;;;;24.89;63.15;100117.85;1791359;80;21017;-70
2021/07/13 05:49:35;;;;;;;19.52;7.97;;;;;;;25.04;63.01;100115.16;1791604;78;21445;-70
2021/07/13 05:52:02;;;;;;;11.55;7.85;;;;;;;24.98;62.69;100108.03;1791678;80;21471;-70
2021/07/13 05:54:28;;;;;;;13.93;8.35;;;;;;;24.87;62.59;100108.31;1791773;80;21045;-70
2021/07/13 05:56:54;;;;;;;16.23;7.83;;;;;;;25.02;62.61;100109.13;1791972;80;21750;-70
2021/07/13 05:59:20;;;;;;;11.60;8.25;;;;;;;25.26;62.47;100106.70;1791801;80;21022;-70
2021/07/13 06:01:46;;;;;;;21.93;9.50;;;;;;;25.37;62.28;100096.02;1779297;80;21525;-70
2021/07/13 06:04:12;;;;;;;14.07;8.15;;;;;;;25.48;62.24;100105.02;1775316;80;21021;-70
2021/07/13 06:06:38;;;;;;;17.17;7.25;;;;;;;25.52;62.07;100100.69;1766810;80;21072;-70
2021/07/13 06:09:04;;;;;;;12.58;6.80;;;;;;;25.45;61.90;100096.02;1790456;80;21914;-70
2021/07/13 06:11:30;;;;;;;10.80;7.03;;;;;;;25.30;61.79;100089.48;1778902;80;21390;-71
2021/07/13 06:13:56;;;;;;;14.65;7.80;;;;;;;25.34;61.79;100097.40;1789200;80;20969;-71
2021/07/13 06:16:23;;;;;;;13.98;7.58;;;;;;;25.52;61.75;100093.86;1788136;80;21418;-71
2021/07/13 06:18:49;;;;;;;17.42;7.47;;;;;;;25.88;61.68;100084.50;1774355;80;21061;-71
2021/07/13 06:21:15;;;;;;;11.38;7.40;;;;;;;26.17;61.42;100096.97;1791886;80;22648;-71
2021/07/13 06:23:41;;;;;;;11.85;7.03;;;;;;;26.17;61.21;100095.09;1768625;80;21073;-71
2021/07/13 06:26:07;;;;;;;14.68;8.60;;;;;;;25.98;60.80;100097.30;1760305;81;21033;-71
2021/07/13 06:28:33;;;;;;;12.05;7.58;;;;;;;25.99;60.79;100092.12;1745582;80;21041;-70
2021/07/13 06:30:59;;;;;;;14.60;7.80;;;;;;;25.85;60.74;100089.16;1745739;81;21054;-71
2021/07/13 06:33:25;;;;;;;13.20;7.65;;;;;;;25.82;60.68;100085.62;1759798;81;21923;-71
2021/07/13 06:35:51;;;;;;;8.95;7.78;;;;;;;25.64;60.54;100094.40;1750849;80;21513;-71
2021/07/13 06:38:17;;;;;;;9.88;7.85;;;;;;;25.35;60.34;100084.03;1738677;80;20899;-70
2021/07/13 06:40:44;;;;;;;18.32;9.15;;;;;;;25.24;60.41;100086.48;1735602;81;21015;-70
2021/07/13 06:43:10;;;;;;;17.85;8.10;;;;;;;25.40;60.56;100081.02;1755631;81;21021;-70
2021/07/13 06:45:36;;;;;;;11.40;7.80;;;;;;;25.43;60.40;100083.20;1756194;81;21834;-70
2021/07/13 06:48:02;;;;;;;17.05;8.58;;;;;;;25.51;60.54;100081.32;1764851;79;21208;-70
2021/07/13 06:50:28;;;;;;;18.00;8.68;;;;;;;25.69;60.52;100084.81;1815875;78;20898;-70
2021/07/13 06:52:54;;;;;;;14.35;8.45;;;;;;;25.52;60.45;100085.66;1792178;80;21407;-70
2021/07/13 06:55:20;;;;;;;15.32;8.53;;;;;;;25.61;60.57;100087.59;1763363;80;20994;-70
2021/07/13 06:57:46;;;;;;;17.32;8.73;;;;;;;25.78;60.54;100079.06;1809168;78;22456;-70
2021/07/13 07:00:13;;;;;;;12.10;7.67;;;;;;;26.00;60.45;100084.98;1775740;80;21041;-71
2021/07/13 07:02:39;;;;;;;14.43;7.30;;;;;;;26.15;60.27;100078.10;1783568;80;21494;-70
2021/07/13 07:05:08;;;;;;;14.35;7.03;;;;;;;26.32;60.11;100074.49;1783208;79;20946;-71
2021/07/13 07:07:44;;;;;;;9.68;7.97;;;;;;;26.42;59.95;100085.95;1784906;78;20983;-70
2021/07/13 07:10:11;;;;;;;12.60;7.37;;;;;;;26.39;59.79;100078.86;1779364;78;21834;-70
2021/07/13 07:12:37;;;;;;;10.80;6.97;;;;;;;26.42;59.66;100070.09;1771126;79;21073;-70
2021/07/13 07:15:03;;;;;;;12.63;7.53;;;;;;;26.50;59.46;100058.53;1815959;78;21073;-70
2021/07/13 07:17:29;;;;;;;12.98;7.50;;;;;;;26.47;59.32;100056.36;1791462;78;21006;-70
2021/07/13 07:20:00;;;;;;;11.60;7.55;;;;;;;26.40;59.04;100051.76;1789828;79;21059;-70
2021/07/13 07:22:23;;;;;;;10.25;7.00;;;;;;;26.35;59.06;100049.89;1807890;78;22513;-70
2021/07/13 07:24:51;;;;;;;11.90;6.28;;;;;;;26.47;58.89;100059.09;1800541;78;21089;-70
2021/07/13 07:27:17;;;;;;;7.42;6.70;;;;;;;26.28;58.66;100051.54;1819989;78;20975;-70
2021/07/13 07:29:43;;;;;;;11.28;6.50;;;;;;;26.30;58.56;100052.09;1805947;78;21217;-70
2021/07/13 07:32:09;;;;;;;8.95;6.17;;;;;;;26.29;58.36;100058.66;1812704;78;20944;-70
2021/07/13 07:34:35;;;;;;;11.05;6.80;;;;;;;26.31;58.22;100053.73;1806624;78;21747;-70
2021/07/13 07:37:02;;;;;;;6.92;5.45;;;;;;;26.52;58.23;100053.61;1818096;77;21092;-70
2021/07/13 07:39:28;;;;;;;16.30;7.10;;;;;;;26.65;57.92;100051.05;1799975;78;21040;-70
2021/07/13 07:41:54;;;;;;;10.25;6.40;;;;;;;26.76;57.89;100057.27;1809151;78;21073;-70
2021/07/13 07:44:23;;;;;;;17.98;8.50;;;;;;;26.87;57.61;100056.13;1794909;78;21024;-70
2021/07/13 07:46:48;;;;;;;6.10;5.45;;;;;;;26.91;57.54;100048.99;1793685;78;22475;-70
2021/07/13 07:49:14;;;;;;;8.20;5.53;;;;;;;26.96;57.26;100052.22;1755336;81;20991;-70
2021/07/13 07:51:40;;;;;;;10.25;5.97;;;;;;;26.84;57.10;100044.39;1770398;80;20991;-70
2021/07/13 07:54:07;;;;;;;8.93;5.70;;;;;;;26.82;56.92;100053.42;1744708;80;21105;-70
2021/07/13 07:56:34;;;;;;;6.25;5.62;;;;;;;26.69;56.73;100048.02;1746060;81;21009;-70
2021/07/13 07:59:02;;;;;;;9.60;6.08;;;;;;;26.86;56.75;100051.75;1742954;80;21824;-70
2021/07/13 08:01:28;;;;;;;10.32;5.92;;;;;;;26.96;56.50;100052.22;1744743;81;20998;-70
2021/07/13 08:03:55;;;;;;;6.90;5.90;;;;;;;26.86;56.32;100048.20;1758303;81;21057;-70
2021/07/13 08:06:21;;;;;;;10.03;6.03;;;;;;;26.96;56.23;100051.67;1741601;81;20999;-70
2021/07/13 08:08:47;;;;;;;6.95;6.15;;;;;;;26.87;55.95;100053.40;1756447;80;21003;-70
2021/07/13 08:11:13;;;;;;;7.55;5.90;;;;;;;26.73;55.80;100055.94;1763703;80;21535;-70
2021/07/13 08:13:39;;;;;;;7.10;6.35;;;;;;;26.80;55.90;100063.82;1761880;80;21303;-70
2021/07/13 08:16:05;;;;;;;17.92;7.10;;;;;;;26.74;55.59;100058.13;1763096;81;21050;-70
2021/07/13 08:18:31;;;;;;;13.18;7.40;;;;;;;26.69;55.64;100056.78;1763296;81;20996;-70
2021/07/13 08:20:59;;;;;;;8.30;6.87;;;;;;;26.65;55.59;100050.23;1762759;80;21058;-70
2021/07/13 08:23:25;;;;;;;7.12;6.37;;;;;;;26.74;55.64;100056.75;1762694;81;21503;-70
2021/07/13 08:25:51;;;;;;;10.82;6.70;;;;;;;26.68;55.65;100053.22;1762417;80;21385;-70
2021/07/13 08:28:17;;;;;;;8.33;7.50;;;;;;;26.79;55.68;100047.13;1763327;81;21007;-70
2021/07/13 08:30:45;;;;;;;8.55;6.67;;;;;;;26.77;55.56;100048.80;1762807;80;21468;-70
2021/07/13 08:33:11;;;;;;;13.75;6.97;;;;;;;26.96;55.70;100046.20;1763375;80;20988;-70
2021/07/13 08:35:38;;;;;;;7.70;6.87;;;;;;;27.02;55.55;100043.67;1746685;81;21836;-70
2021/07/13 08:38:05;;;;;;;7.83;7.03;;;;;;;27.03;55.32;100043.13;1760517;81;21510;-70
2021/07/13 08:40:32;;;;;;;7.53;6.45;;;;;;;26.99;55.14;100040.69;1739639;81;21022;-70
2021/07/13 08:42:58;;;;;;;8.25;6.35;;;;;;;26.93;55.02;100036.37;1751401;81;20998;-70
2021/07/13 08:45:24;;;;;;;12.15;6.35;;;;;;;27.06;54.98;100036.52;1737014;80;21416;-70
2021/07/13 08:47:51;;;;;;;9.25;7.17;;;;;;;27.12;54.96;100034.03;1746287;81;22498;-70
2021/07/13 08:50:19;;;;;;;9.10;6.60;;;;;;;27.22;54.95;100030.37;1797964;78;21013;-70
2021/07/13 08:52:47;;;;;;;12.47;7.33;;;;;;;27.36;55.07;100037.35;1806570;78;21399;-70
2021/07/13 08:55:14;;;;;;;7.92;7.08;;;;;;;27.45;55.00;100032.90;1789400;78;21069;-70
2021/07/13 08:57:41;;;;;;;9.75;6.65;;;;;;;27.60;54.97;100027.27;1814674;78;21501;-70
2021/07/13 09:00:14;;;;;;;8.30;6.70;;;;;;;27.53;54.82;100028.16;1805398;78;21893;-72
2021/07/13 09:03:12;;;;;;;11.93;7.45;;;;;;;27.53;54.78;100026.25;1808378;78;20985;-70
2021/07/13 09:05:54;;;;;;;14.18;8.18;;;;;;;27.59;54.83;100029.18;1789765;78;21359;-70
2021/07/13 09:08:31;;;;;;;9.08;6.03;;;;;;;27.82;54.92;100030.30;1788897;80;20990;-69
2021/07/13 09:11:08;;;;;;;8.23;6.80;;;;;;;27.75;54.75;100027.09;1789181;80;21009;-69
2021/07/13 09:13:50;;;;;;;11.12;7.03;;;;;;;27.73;54.71;100026.01;1789237;80;21836;-70
2021/07/13 09:16:20;;;;;;;7.80;7.00;;;;;;;27.76;54.38;100024.05;1788233;80;21014;-69
2021/07/13 09:18:50;;;;;;;12.35;7.97;;;;;;;27.79;54.30;100019.92;1788148;80;20909;-69
2021/07/13 09:21:23;;;;;;;12.23;7.60;;;;;;;27.66;54.20;100019.23;1800056;78;21021;-70
2021/07/13 09:24:24;;;;;;;12.45;7.72;;;;;;;27.72;54.26;100022.20;1808324;78;20994;-69
2021/07/13 09:26:56;;;;;;;9.48;7.00;;;;;;;27.61;54.14;100016.02;1819779;78;22546;-69
2021/07/13 09:29:37;;;;;;;8.95;7.37;;;;;;;27.38;53.91;100011.84;1810167;78;21049;-70
2021/07/13 09:32:23;;;;;;;9.35;6.42;;;;;;;27.36;54.09;100016.81;1796687;78;21009;-69
2021/07/13 09:35:04;;;;;;;8.43;7.17;;;;;;;27.54;54.18;100013.36;1789591;80;21445;-69
2021/07/13 09:37:39;;;;;;;10.48;7.78;;;;;;;27.52;54.04;100006.80;1789454;79;21088;-69
2021/07/13 09:40:14;;;;;;;12.53;7.55;;;;;;;27.44;53.85;100014.82;1789991;80;21808;-69
2021/07/13 09:42:47;;;;;;;11.43;8.18;;;;;;;27.51;54.10;100002.44;1789794;80;21018;-69
2021/07/13 09:45:31;;;;;;;10.68;7.10;;;;;;;27.66;54.09;100006.36;1789287;80;20962;-69
2021/07/13 09:47:58;;;;;;;8.58;6.67;;;;;;;27.75;54.11;99999.69;1789889;80;21018;-69
2021/07/13 09:50:43;;;;;;;9.45;7.05;;;;;;;27.89;53.97;100002.53;1789995;80;21406;-69
2021/07/13 09:53:13;;;;;;;11.30;7.20;;;;;;;27.86;53.61;99999.83;1789791;80;21829;-69
2021/07/13 09:55:39;;;;;;;8.13;7.33;;;;;;;27.93;53.50;99998.09;1789816;80;21088;-69
2021/07/13 09:58:20;;;;;;;13.10;7.72;;;;;;;28.01;53.47;99995.50;1789824;80;20974;-70
2021/07/13 10:00:51;;;;;;;12.80;7.60;;;;;;;28.11;53.40;99996.76;1789499;80;21379;-69
2021/07/13 10:03:19;;;;;;;8.53;6.83;;;;;;;28.05;53.20;99997.91;1790176;80;20997;-69
2021/07/13 10:05:49;;;;;;;10.38;7.47;;;;;;;27.91;52.94;99996.19;1790497;80;22809;-70
2021/07/13 10:08:16;;;;;;;10.85;7.10;;;;;;;27.87;52.67;99993.22;1763971;80;21029;-69
2021/07/13 10:10:43;;;;;;;10.80;7.87;;;;;;;27.90;52.70;99994.03;1789601;80;20986;-69
2021/07/13 10:13:15;;;;;;;14.60;7.67;;;;;;;27.85;52.38;99989.14;1789622;80;21524;-70
2021/07/13 10:15:42;;;;;;;11.57;7.72;;;;;;;27.74;52.42;99987.09;1789806;80;21378;-69
2021/07/13 10:18:08;;;;;;;12.20;7.70;;;;;;;27.82;52.57;99979.59;1789669;80;21863;-69
2021/07/13 10:20:37;;;;;;;8.15;6.65;;;;;;;27.99;52.73;99992.25;1790032;80;20966;-70
2021/07/13 10:23:09;;;;;;;9.63;6.70;;;;;;;28.13;52.81;99991.81;1789870;80;21431;-69
2021/07/13 10:25:42;;;;;;;10.35;6.97;;;;;;;28.17;52.51;99991.48;1763273;80;21061;-69
2021/07/13 10:28:08;;;;;;;13.18;6.70;;;;;;;28.14;52.27;99985.23;1789852;80;21045;-69
2021/07/13 10:30:37;;;;;;;13.03;6.87;;;;;;;28.22;52.07;99991.95;1790059;80;21832;-69
2021/07/13 10:33:24;;;;;;;7.62;6.90;;;;;;;28.21;51.99;99985.67;1789545;80;20978;-69
2021/07/13 10:35:50;;;;;;;9.95;6.90;;;;;;;28.28;51.89;99988.86;1789678;80;21033;-69
2021/07/13 10:38:23;;;;;;;8.15;7.37;;;;;;;28.30;51.81;99985.80;1789915;80;21026;-69
2021/07/13 10:40:51;;;;;;;12.07;7.40;;;;;;;28.11;51.38;99998.72;1790133;80;20998;-69
2021/07/13 10:43:21;;;;;;;11.88;8.33;;;;;;;28.01;51.39;99996.88;1789739;80;21865;-69
2021/07/13 10:46:08;;;;;;;10.90;7.15;;;;;;;28.19;51.46;99985.69;1790020;80;21427;-70
2021/07/13 10:48:34;;;;;;;13.28;7.70;;;;;;;28.30;51.33;99987.17;1790099;80;20890;-70
2021/07/13 10:51:06;;;;;;;9.63;7.03;;;;;;;28.41;51.18;99983.73;1777691;80;21026;-69
2021/07/13 10:53:42;;;;;;;8.10;7.03;;;;;;;28.35;51.00;99983.00;1774502;80;21001;-69
2021/07/13 10:56:15;;;;;;;11.50;6.60;;;;;;;28.19;50.82;99986.51;1774798;80;21885;-69
2021/07/13 10:58:46;;;;;;;8.43;7.05;;;;;;;28.05;50.81;99982.84;1780359;79;20966;-70
2021/07/13 11:01:14;;;;;;;9.10;7.03;;;;;;;28.21;50.95;99974.70;1772902;80;21054;-69
2021/07/13 11:03:46;;;;;;;8.37;6.77;;;;;;;28.27;50.74;99973.51;1776831;79;21428;-70
2021/07/13 11:06:19;;;;;;;8.43;7.62;;;;;;;28.33;50.53;99975.61;1790244;78;21069;-69
2021/07/13 11:08:50;;;;;;;8.75;6.67;;;;;;;28.49;50.58;99964.67;1808075;78;21796;-69
2021/07/13 11:11:28;;;;;;;8.68;6.20;;;;;;;28.56;50.41;99960.99;1813534;78;21686;-69
2021/07/13 11:14:05;;;;;;;10.38;7.30;;;;;;;28.76;50.38;99970.28;1782658;78;21003;-70
2021/07/13 11:16:37;;;;;;;8.58;7.72;;;;;;;28.85;50.14;99966.31;1796786;78;21070;-69
2021/07/13 11:19:07;;;;;;;9.05;7.42;;;;;;;29.05;50.28;99961.00;1786726;79;20914;-70
2021/07/13 11:21:37;;;;;;;9.20;7.00;;;;;;;28.94;50.07;99956.25;1777196;78;22820;-69
2021/07/13 11:24:11;;;;;;;7.83;7.03;;;;;;;28.79;49.90;99962.00;1775533;79;21019;-70
2021/07/13 11:26:51;;;;;;;7.40;6.60;;;;;;;28.68;49.81;99959.16;1775720;79;21074;-70